Weather at Alexander's-Roosevelt Heliport [CLOSED]

Public forecast

Using degrees Fahrenheit for public forecast. Weather courtesy of forecast.io.

Closest aviation weather report (METAR) to Alexander's-Roosevelt Heliport

Closest report is Jake Arner Memorial Airport, 7.7 nm (14.3 km) NW. Retrieved 2021/06/23 02:35 UTC (6 minutes ago):

K22N 230235Z AUTO 00000KT 7SM CLR 10/10 A3000 RMK AO2

Closest aviation forecast (TAF) to Alexander's-Roosevelt Heliport

Closest forecast is Lehigh Valley International Airport, 9.6 nm (17.8 km) ESE. Retrieved 2021-06-23 00:30 UTC (2 hours ago):

TAF KABE 222328Z 2300/2324 32007KT P6SM SCT050 BKN200 FM230200 VRB02KT 6SM BR SKC FM231200 33005KT P6SM FEW060